Worden, MT (59088)

2:34 AM MDT on May 23, 2015 (GMT -0600)
MesoWest | | Change Station
CLOSE
Current Station
Personal Weather Station
Location: Huntley, MT
Elevation: 3701 ft
Nearby Weather Stations

Elev 3701 ft 45.78 °N, 108.16 °W | Updated 29 minutes ago

Mostly Cloudy
Mostly Cloudy
47 °F
Feels Like 42 °F
N
10
Wind Variable Wind from East
Gusts 11.0 mph

Today
High -- | Low -- °F
--% Chance of Precip.
Yesterday
High -- | Low -- °F
Precip. -- in
5:32 AM 8:47 PM
Waxing Crescent, 28% visible
Pressure 29.91 in
Visibility 10.0 miles
Clouds Few 2200 ft
Mostly Cloudy 9500 ft
Windchill 42 °F
Dew Point 42 °F
Humidity 83%
Rainfall in
Snow Depth Not available.
UV 0 out of 12
Pollen 8.20 out of 12
Air Quality Not available.
Flu Activity Sporadic
METAR KBIL 230753Z 36004KT 10SM FEW022 BKN095 10/07 A2995 RMK AO2 SLP127 T01000072

More Conditions Fewer Conditions

Pressure 29.91 in
Visibility 10.0 miles
Clouds Few 2200 ft
Mostly Cloudy 9500 ft
Windchill 42 °F
Dew Point 42 °F
Humidity 83%
Rainfall in
Snow Depth Not available.
UV 0 out of 12
Pollen 8.20 out of 12
Air Quality Not available.
Flu Activity Sporadic
METAR KBIL 230753Z 36004KT 10SM FEW022 BKN095 10/07 A2995 RMK AO2 SLP127 T01000072

More Conditions Fewer Conditions

10-Day Weather Forecast

Almanac

Astronomy

May. 23, 2015 Rise Set
Actual Time
Civil Twilight
Nautical Twilight
Astronomical Twilight
Moon
Length of Visible Light
Length of Day
Tomorrow will be .
, % of the Moon is Illuminated

Today's Extremes

State Highs State Lows

Community

WunderPhotos

Upload Photos

1,823,401 photos uploaded!

WunderBlogs® & News

Nearby

Air Quality

  Air Quality AQ Index Pollutant
Not available.

Snow Depth

Station Depth Elevation

Earthquake Activity

City Distance Mag. Time & Date
Minimum magnitude displayed is 2.5.

Coastal Water Temperatures

Place Temperature

Stations

Nearby Weather Stations

Station Location Temp. Windchill Dew Point Humidity Wind Precip. Elev Updated Type